sensor_id;sensor_type;location;lat;lon;timestamp;pressure;altitude;pressure_sealevel;temperature;humidity
34177;BME280;20450;49.074;9.158;2023-03-15T00:01:59;99452.75;;;4.19;84.26
34177;BME280;20450;49.074;9.158;2023-03-15T00:04:27;99466.97;;;4.20;84.05
34177;BME280;20450;49.074;9.158;2023-03-15T00:06:54;99472.50;;;4.18;84.02
34177;BME280;20450;49.074;9.158;2023-03-15T00:09:21;99477.66;;;4.20;83.82
34177;BME280;20450;49.074;9.158;2023-03-15T00:11:48;99487.31;;;4.21;83.80
34177;BME280;20450;49.074;9.158;2023-03-15T00:14:15;99489.28;;;4.27;83.35
34177;BME280;20450;49.074;9.158;2023-03-15T00:16:43;99495.63;;;4.26;83.83
34177;BME280;20450;49.074;9.158;2023-03-15T00:19:12;99496.94;;;4.30;84.04
34177;BME280;20450;49.074;9.158;2023-03-15T00:21:39;99501.94;;;4.33;84.28
34177;BME280;20450;49.074;9.158;2023-03-15T00:24:07;99495.75;;;4.32;83.77
34177;BME280;20450;49.074;9.158;2023-03-15T00:26:34;99500.22;;;4.40;83.89
34177;BME280;20450;49.074;9.158;2023-03-15T00:29:01;99506.75;;;4.37;83.69
34177;BME280;20450;49.074;9.158;2023-03-15T00:31:28;99503.91;;;4.39;83.58
34177;BME280;20450;49.074;9.158;2023-03-15T00:33:54;99512.03;;;4.45;83.29
34177;BME280;20450;49.074;9.158;2023-03-15T00:36:23;99514.53;;;4.47;83.06
34177;BME280;20450;49.074;9.158;2023-03-15T00:38:54;99519.06;;;4.46;82.85
34177;BME280;20450;49.074;9.158;2023-03-15T00:41:22;99517.38;;;4.45;82.86
34177;BME280;20450;49.074;9.158;2023-03-15T00:43:50;99524.44;;;4.38;82.41
34177;BME280;20450;49.074;9.158;2023-03-15T00:46:18;99527.25;;;4.45;83.03
34177;BME280;20450;49.074;9.158;2023-03-15T00:48:49;99531.03;;;4.50;82.78
34177;BME280;20450;49.074;9.158;2023-03-15T00:51:18;99544.25;;;4.52;82.05
34177;BME280;20450;49.074;9.158;2023-03-15T00:53:49;99546.25;;;4.50;82.37
34177;BME280;20450;49.074;9.158;2023-03-15T00:56:20;99544.41;;;4.50;82.32
34177;BME280;20450;49.074;9.158;2023-03-15T00:58:48;99539.72;;;4.30;83.13
34177;BME280;20450;49.074;9.158;2023-03-15T01:01:19;99548.56;;;4.30;82.60
34177;BME280;20450;49.074;9.158;2023-03-15T01:03:48;99551.41;;;4.29;82.42
34177;BME280;20450;49.074;9.158;2023-03-15T01:06:17;99550.63;;;4.20;82.85
34177;BME280;20450;49.074;9.158;2023-03-15T01:08:48;99552.88;;;4.08;83.03
34177;BME280;20450;49.074;9.158;2023-03-15T01:11:18;99553.03;;;4.15;83.69
34177;BME280;20450;49.074;9.158;2023-03-15T01:13:46;99550.03;;;4.10;82.98
34177;BME280;20450;49.074;9.158;2023-03-15T01:16:14;99544.38;;;3.74;83.87
34177;BME280;20450;49.074;9.158;2023-03-15T01:18:42;99556.28;;;3.64;84.88
34177;BME280;20450;49.074;9.158;2023-03-15T01:21:11;99562.41;;;3.72;84.55
34177;BME280;20450;49.074;9.158;2023-03-15T01:23:40;99557.41;;;3.77;84.24
34177;BME280;20450;49.074;9.158;2023-03-15T01:26:11;99563.19;;;3.81;84.43
34177;BME280;20450;49.074;9.158;2023-03-15T01:28:40;99565.88;;;3.81;84.28
34177;BME280;20450;49.074;9.158;2023-03-15T01:31:08;99565.41;;;3.77;83.93
34177;BME280;20450;49.074;9.158;2023-03-15T01:33:43;99573.72;;;3.82;84.68
34177;BME280;20450;49.074;9.158;2023-03-15T01:36:11;99572.59;;;3.77;84.49
34177;BME280;20450;49.074;9.158;2023-03-15T01:38:38;99582.41;;;3.76;84.44
34177;BME280;20450;49.074;9.158;2023-03-15T01:41:06;99577.44;;;3.73;84.07
34177;BME280;20450;49.074;9.158;2023-03-15T01:43:34;99588.50;;;3.70;84.24
34177;BME280;20450;49.074;9.158;2023-03-15T01:46:13;99592.47;;;3.66;83.67
34177;BME280;20450;49.074;9.158;2023-03-15T01:48:50;99596.19;;;3.57;83.97
34177;BME280;20450;49.074;9.158;2023-03-15T01:51:32;99601.69;;;3.56;84.01
34177;BME280;20450;49.074;9.158;2023-03-15T01:54:06;99600.22;;;3.53;83.63
34177;BME280;20450;49.074;9.158;2023-03-15T01:56:40;99602.22;;;3.51;84.24
34177;BME280;20450;49.074;9.158;2023-03-15T01:59:16;99597.56;;;3.45;83.89
34177;BME280;20450;49.074;9.158;2023-03-15T02:01:50;99601.78;;;3.24;84.16
34177;BME280;20450;49.074;9.158;2023-03-15T02:04:23;99605.78;;;3.28;84.79
34177;BME280;20450;49.074;9.158;2023-03-15T02:06:55;99611.97;;;3.20;85.19
34177;BME280;20450;49.074;9.158;2023-03-15T02:09:34;99599.13;;;3.24;84.95
34177;BME280;20450;49.074;9.158;2023-03-15T02:12:08;99605.94;;;3.26;84.72
34177;BME280;20450;49.074;9.158;2023-03-15T02:14:37;99613.78;;;3.28;84.93
34177;BME280;20450;49.074;9.158;2023-03-15T02:17:07;99617.63;;;3.17;84.98
34177;BME280;20450;49.074;9.158;2023-03-15T02:19:41;99611.97;;;3.20;84.93
34177;BME280;20450;49.074;9.158;2023-03-15T02:22:28;99606.66;;;3.12;85.17
34177;BME280;20450;49.074;9.158;2023-03-15T02:25:09;99601.47;;;3.11;85.45
34177;BME280;20450;49.074;9.158;2023-03-15T02:27:44;99599.78;;;3.10;84.84
34177;BME280;20450;49.074;9.158;2023-03-15T02:30:13;99606.97;;;3.09;85.45
34177;BME280;20450;49.074;9.158;2023-03-15T02:32:40;99607.97;;;3.08;84.96
34177;BME280;20450;49.074;9.158;2023-03-15T02:35:08;99608.63;;;3.10;85.04
34177;BME280;20450;49.074;9.158;2023-03-15T02:37:35;99623.97;;;3.08;85.31
34177;BME280;20450;49.074;9.158;2023-03-15T02:40:15;99637.31;;;3.08;84.76
34177;BME280;20450;49.074;9.158;2023-03-15T02:42:47;99638.50;;;3.06;85.12
34177;BME280;20450;49.074;9.158;2023-03-15T02:45:19;99649.00;;;3.07;85.48
34177;BME280;20450;49.074;9.158;2023-03-15T02:47:49;99649.34;;;3.04;85.27
34177;BME280;20450;49.074;9.158;2023-03-15T02:50:17;99670.34;;;3.07;84.79
34177;BME280;20450;49.074;9.158;2023-03-15T02:52:44;99668.84;;;3.05;84.59
34177;BME280;20450;49.074;9.158;2023-03-15T02:55:11;99670.34;;;3.07;84.82
34177;BME280;20450;49.074;9.158;2023-03-15T02:57:38;99679.84;;;3.10;85.02
34177;BME280;20450;49.074;9.158;2023-03-15T03:00:08;99686.53;;;3.06;84.68
34177;BME280;20450;49.074;9.158;2023-03-15T03:02:36;99701.03;;;3.03;84.64
34177;BME280;20450;49.074;9.158;2023-03-15T03:05:04;99701.03;;;3.03;84.71
34177;BME280;20450;49.074;9.158;2023-03-15T03:07:31;99704.53;;;3.04;84.56
34177;BME280;20450;49.074;9.158;2023-03-15T03:10:03;99708.69;;;2.98;84.08
34177;BME280;20450;49.074;9.158;2023-03-15T03:12:40;99701.53;;;2.99;84.59
34177;BME280;20450;49.074;9.158;2023-03-15T03:15:10;99704.19;;;2.99;84.45
34177;BME280;20450;49.074;9.158;2023-03-15T03:17:37;99709.53;;;2.99;84.70
34177;BME280;20450;49.074;9.158;2023-03-15T03:20:06;99718.84;;;2.95;84.66
34177;BME280;20450;49.074;9.158;2023-03-15T03:22:39;99723.03;;;2.97;84.45
34177;BME280;20450;49.074;9.158;2023-03-15T03:25:08;99722.72;;;3.00;84.71
34177;BME280;20450;49.074;9.158;2023-03-15T03:27:35;99726.03;;;3.02;84.08
34177;BME280;20450;49.074;9.158;2023-03-15T03:30:06;99730.56;;;3.02;83.40
34177;BME280;20450;49.074;9.158;2023-03-15T03:32:39;99732.38;;;3.01;83.92
34177;BME280;20450;49.074;9.158;2023-03-15T03:35:07;99741.88;;;2.96;83.85
34177;BME280;20450;49.074;9.158;2023-03-15T03:37:35;99743.88;;;2.94;83.93
34177;BME280;20450;49.074;9.158;2023-03-15T03:40:08;99744.72;;;2.94;84.22
34177;BME280;20450;49.074;9.158;2023-03-15T03:42:37;99749.41;;;3.00;83.84
34177;BME280;20450;49.074;9.158;2023-03-15T03:45:05;99752.72;;;3.02;83.78
34177;BME280;20450;49.074;9.158;2023-03-15T03:47:40;99759.56;;;3.05;83.30
34177;BME280;20450;49.074;9.158;2023-03-15T03:50:09;99759.56;;;3.05;83.26
34177;BME280;20450;49.074;9.158;2023-03-15T03:52:37;99752.56;;;3.04;83.01
34177;BME280;20450;49.074;9.158;2023-03-15T03:55:08;99761.03;;;2.99;82.56
34177;BME280;20450;49.074;9.158;2023-03-15T03:57:36;99767.72;;;2.95;82.48
34177;BME280;20450;49.074;9.158;2023-03-15T04:00:07;99775.72;;;2.95;82.64
34177;BME280;20450;49.074;9.158;2023-03-15T04:02:50;99772.84;;;2.89;83.00
34177;BME280;20450;49.074;9.158;2023-03-15T04:05:17;99781.06;;;2.95;83.23
34177;BME280;20450;49.074;9.158;2023-03-15T04:07:44;99774.72;;;2.96;83.14
34177;BME280;20450;49.074;9.158;2023-03-15T04:10:14;99783.91;;;3.02;82.58
34177;BME280;20450;49.074;9.158;2023-03-15T04:12:44;99792.09;;;3.00;82.56
34177;BME280;20450;49.074;9.158;2023-03-15T04:15:13;99792.56;;;3.04;83.03
34177;BME280;20450;49.074;9.158;2023-03-15T04:17:40;99786.09;;;3.06;82.82
34177;BME280;20450;49.074;9.158;2023-03-15T04:20:10;99788.44;;;3.09;82.08
34177;BME280;20450;49.074;9.158;2023-03-15T04:22:41;99794.59;;;3.02;82.13
34177;BME280;20450;49.074;9.158;2023-03-15T04:25:41;99797.41;;;3.00;82.18
34177;BME280;20450;49.074;9.158;2023-03-15T04:28:14;99805.69;;;2.81;82.03
34177;BME280;20450;49.074;9.158;2023-03-15T04:30:54;99812.25;;;2.20;83.94
34177;BME280;20450;49.074;9.158;2023-03-15T04:33:39;99810.00;;;1.64;86.03
34177;BME280;20450;49.074;9.158;2023-03-15T04:36:25;99815.66;;;1.43;87.19
34177;BME280;20450;49.074;9.158;2023-03-15T04:39:11;99817.16;;;1.46;87.75
34177;BME280;20450;49.074;9.158;2023-03-15T04:41:57;99818.63;;;1.40;88.19
34177;BME280;20450;49.074;9.158;2023-03-15T04:44:34;99823.75;;;1.34;88.23
34177;BME280;20450;49.074;9.158;2023-03-15T04:47:20;99822.81;;;1.43;88.13
34177;BME280;20450;49.074;9.158;2023-03-15T04:50:07;99827.59;;;1.57;87.97
34177;BME280;20450;49.074;9.158;2023-03-15T04:52:52;99825.78;;;1.57;87.91
34177;BME280;20450;49.074;9.158;2023-03-15T04:55:34;99833.38;;;1.52;87.40
34177;BME280;20450;49.074;9.158;2023-03-15T04:58:20;99822.16;;;1.23;87.42
34177;BME280;20450;49.074;9.158;2023-03-15T05:01:00;99829.03;;;0.99;89.13
34177;BME280;20450;49.074;9.158;2023-03-15T05:03:57;99826.03;;;0.84;89.45
34177;BME280;20450;49.074;9.158;2023-03-15T05:06:46;99818.81;;;0.77;89.93
34177;BME280;20450;49.074;9.158;2023-03-15T05:09:38;99820.53;;;0.68;90.06
34177;BME280;20450;49.074;9.158;2023-03-15T05:12:31;99824.97;;;0.77;90.38
34177;BME280;20450;49.074;9.158;2023-03-15T05:15:14;99824.72;;;0.71;90.15
34177;BME280;20450;49.074;9.158;2023-03-15T05:18:07;99822.47;;;0.76;90.00
34177;BME280;20450;49.074;9.158;2023-03-15T05:21:05;99817.16;;;0.76;89.98
34177;BME280;20450;49.074;9.158;2023-03-15T05:23:45;99829.31;;;0.96;90.18
34177;BME280;20450;49.074;9.158;2023-03-15T05:26:46;99829.59;;;1.20;89.37
34177;BME280;20450;49.074;9.158;2023-03-15T05:29:37;99831.78;;;1.42;88.23
34177;BME280;20450;49.074;9.158;2023-03-15T05:32:23;99829.50;;;1.64;87.36
34177;BME280;20450;49.074;9.158;2023-03-15T05:35:11;99831.06;;;1.75;86.63
34177;BME280;20450;49.074;9.158;2023-03-15T05:37:47;99834.47;;;1.85;85.58
34177;BME280;20450;49.074;9.158;2023-03-15T05:40:42;99845.88;;;1.95;85.21
34177;BME280;20450;49.074;9.158;2023-03-15T05:43:34;99842.22;;;1.96;84.98
34177;BME280;20450;49.074;9.158;2023-03-15T05:46:14;99854.16;;;2.10;84.66
34177;BME280;20450;49.074;9.158;2023-03-15T05:48:57;99846.88;;;2.20;84.47
34177;BME280;20450;49.074;9.158;2023-03-15T05:51:33;99833.72;;;2.18;84.23
34177;BME280;20450;49.074;9.158;2023-03-15T05:54:20;99846.72;;;2.21;83.47
34177;BME280;20450;49.074;9.158;2023-03-15T05:56:47;99850.97;;;2.40;82.96
34177;BME280;20450;49.074;9.158;2023-03-15T05:59:15;99852.50;;;2.76;82.06
34177;BME280;20450;49.074;9.158;2023-03-15T06:02:06;99853.38;;;3.34;80.36
34177;BME280;20450;49.074;9.158;2023-03-15T06:04:41;99852.06;;;3.62;78.44
34177;BME280;20450;49.074;9.158;2023-03-15T06:07:11;99865.94;;;3.81;77.86
34177;BME280;20450;49.074;9.158;2023-03-15T06:09:38;99859.03;;;4.27;76.64
34177;BME280;20450;49.074;9.158;2023-03-15T06:12:06;99858.38;;;4.49;75.00
34177;BME280;20450;49.074;9.158;2023-03-15T06:14:36;99865.41;;;4.89;74.49
34177;BME280;20450;49.074;9.158;2023-03-15T06:17:06;99865.44;;;5.50;72.14
34177;BME280;20450;49.074;9.158;2023-03-15T06:19:40;99859.63;;;6.29;69.39
34177;BME280;20450;49.074;9.158;2023-03-15T06:22:08;99864.56;;;6.54;66.65
34177;BME280;20450;49.074;9.158;2023-03-15T06:24:51;99866.13;;;6.34;66.95
34177;BME280;20450;49.074;9.158;2023-03-15T06:27:18;99854.75;;;6.47;66.66
34177;BME280;20450;49.074;9.158;2023-03-15T06:29:47;99851.22;;;7.04;63.92
34177;BME280;20450;49.074;9.158;2023-03-15T06:32:15;99857.34;;;8.12;63.04
34177;BME280;20450;49.074;9.158;2023-03-15T06:34:42;99857.25;;;8.75;58.01
34177;BME280;20450;49.074;9.158;2023-03-15T06:37:11;99874.84;;;8.43;66.10
34177;BME280;20450;49.074;9.158;2023-03-15T06:39:42;99871.97;;;9.66;58.64
34177;BME280;20450;49.074;9.158;2023-03-15T06:42:09;99871.03;;;10.65;54.17
34177;BME280;20450;49.074;9.158;2023-03-15T06:44:37;99875.69;;;11.15;55.58
34177;BME280;20450;49.074;9.158;2023-03-15T06:47:08;99877.03;;;12.19;51.45
34177;BME280;20450;49.074;9.158;2023-03-15T06:49:36;99885.66;;;11.15;50.32
34177;BME280;20450;49.074;9.158;2023-03-15T06:52:05;99883.84;;;10.04;56.79
34177;BME280;20450;49.074;9.158;2023-03-15T06:54:37;99889.19;;;9.72;57.86
34177;BME280;20450;49.074;9.158;2023-03-15T06:57:04;99889.47;;;8.62;55.38
34177;BME280;20450;49.074;9.158;2023-03-15T06:59:31;99879.78;;;8.40;56.25
34177;BME280;20450;49.074;9.158;2023-03-15T07:01:58;99889.34;;;9.57;59.06
34177;BME280;20450;49.074;9.158;2023-03-15T07:04:26;99886.72;;;11.07;53.50
34177;BME280;20450;49.074;9.158;2023-03-15T07:06:54;99879.28;;;10.96;48.43
34177;BME280;20450;49.074;9.158;2023-03-15T07:09:21;99873.22;;;11.64;48.84
34177;BME280;20450;49.074;9.158;2023-03-15T07:11:48;99881.19;;;9.31;53.29
34177;BME280;20450;49.074;9.158;2023-03-15T07:14:15;99891.44;;;6.83;57.87
34177;BME280;20450;49.074;9.158;2023-03-15T07:16:42;99891.13;;;7.72;60.64
34177;BME280;20450;49.074;9.158;2023-03-15T07:19:09;99894.44;;;8.16;56.05
34177;BME280;20450;49.074;9.158;2023-03-15T07:21:37;99899.66;;;9.00;58.52
34177;BME280;20450;49.074;9.158;2023-03-15T07:24:06;99893.47;;;10.46;53.98
34177;BME280;20450;49.074;9.158;2023-03-15T07:26:33;99884.28;;;9.95;50.82
34177;BME280;20450;49.074;9.158;2023-03-15T07:29:00;99895.56;;;10.57;50.49
34177;BME280;20450;49.074;9.158;2023-03-15T07:31:27;99893.22;;;11.63;50.24
34177;BME280;20450;49.074;9.158;2023-03-15T07:33:54;99895.31;;;12.30;48.42
34177;BME280;20450;49.074;9.158;2023-03-15T07:36:21;99900.44;;;12.87;45.88
34177;BME280;20450;49.074;9.158;2023-03-15T07:38:49;99886.34;;;13.03;45.74
34177;BME280;20450;49.074;9.158;2023-03-15T07:41:16;99894.47;;;13.21;44.90
34177;BME280;20450;49.074;9.158;2023-03-15T07:43:54;99894.72;;;12.53;47.20
34177;BME280;20450;49.074;9.158;2023-03-15T07:46:24;99895.03;;;12.07;47.00
34177;BME280;20450;49.074;9.158;2023-03-15T07:48:51;99901.47;;;13.47;46.17
34177;BME280;20450;49.074;9.158;2023-03-15T07:51:18;99900.22;;;14.27;42.15
34177;BME280;20450;49.074;9.158;2023-03-15T07:53:44;99896.44;;;13.98;42.93
34177;BME280;20450;49.074;9.158;2023-03-15T07:56:14;99902.88;;;13.67;43.93
34177;BME280;20450;49.074;9.158;2023-03-15T07:58:41;99901.41;;;11.44;43.76
34177;BME280;20450;49.074;9.158;2023-03-15T08:01:08;99917.56;;;10.87;46.74
34177;BME280;20450;49.074;9.158;2023-03-15T08:03:35;99921.94;;;10.29;47.14
34177;BME280;20450;49.074;9.158;2023-03-15T08:06:02;99909.84;;;12.05;48.62
34177;BME280;20450;49.074;9.158;2023-03-15T08:08:29;99910.19;;;12.15;48.09
34177;BME280;20450;49.074;9.158;2023-03-15T08:10:56;99908.25;;;13.20;45.36
34177;BME280;20450;49.074;9.158;2023-03-15T08:13:24;99906.78;;;14.60;41.07
34177;BME280;20450;49.074;9.158;2023-03-15T08:15:51;99910.94;;;15.20;39.86
34177;BME280;20450;49.074;9.158;2023-03-15T08:18:18;99908.16;;;14.51;41.30
34177;BME280;20450;49.074;9.158;2023-03-15T08:20:45;99916.22;;;14.46;39.97
34177;BME280;20450;49.074;9.158;2023-03-15T08:23:12;99916.53;;;14.27;38.57
34177;BME280;20450;49.074;9.158;2023-03-15T08:25:39;99917.44;;;13.73;41.11
34177;BME280;20450;49.074;9.158;2023-03-15T08:28:06;99917.81;;;14.06;40.13
34177;BME280;20450;49.074;9.158;2023-03-15T08:30:35;99918.00;;;14.23;38.62
34177;BME280;20450;49.074;9.158;2023-03-15T08:33:02;99927.72;;;14.94;39.32
34177;BME280;20450;49.074;9.158;2023-03-15T08:35:32;99937.59;;;12.31;43.51
34177;BME280;20450;49.074;9.158;2023-03-15T08:37:59;99938.94;;;13.74;42.40
34177;BME280;20450;49.074;9.158;2023-03-15T08:40:28;99934.56;;;12.46;44.70
34177;BME280;20450;49.074;9.158;2023-03-15T08:42:56;99940.78;;;12.22;46.00
34177;BME280;20450;49.074;9.158;2023-03-15T08:45:24;99943.13;;;12.43;44.58
34177;BME280;20450;49.074;9.158;2023-03-15T08:47:55;99945.16;;;11.21;45.36
34177;BME280;20450;49.074;9.158;2023-03-15T08:50:22;99948.63;;;11.41;44.77
34177;BME280;20450;49.074;9.158;2023-03-15T08:52:51;99957.25;;;10.93;47.70
34177;BME280;20450;49.074;9.158;2023-03-15T08:55:19;99957.00;;;10.16;49.37
34177;BME280;20450;49.074;9.158;2023-03-15T08:57:46;99969.94;;;9.80;50.57
34177;BME280;20450;49.074;9.158;2023-03-15T09:00:15;99958.91;;;9.75;50.73
34177;BME280;20450;49.074;9.158;2023-03-15T09:02:42;99966.31;;;9.60;50.49
34177;BME280;20450;49.074;9.158;2023-03-15T09:05:11;99970.66;;;8.38;52.49
34177;BME280;20450;49.074;9.158;2023-03-15T09:07:38;99973.69;;;8.56;52.64
34177;BME280;20450;49.074;9.158;2023-03-15T09:10:05;99973.53;;;8.85;52.31
34177;BME280;20450;49.074;9.158;2023-03-15T09:12:32;99976.97;;;9.34;53.33
34177;BME280;20450;49.074;9.158;2023-03-15T09:14:59;99976.53;;;9.30;51.13
34177;BME280;20450;49.074;9.158;2023-03-15T09:17:26;99975.63;;;9.17;50.78
34177;BME280;20450;49.074;9.158;2023-03-15T09:19:53;99975.88;;;9.22;51.77
34177;BME280;20450;49.074;9.158;2023-03-15T09:22:22;99984.94;;;9.48;51.98
34177;BME280;20450;49.074;9.158;2023-03-15T09:25:05;99974.22;;;9.61;52.24
34177;BME280;20450;49.074;9.158;2023-03-15T09:27:33;99984.22;;;9.74;51.85
34177;BME280;20450;49.074;9.158;2023-03-15T09:29:59;99975.09;;;10.22;49.69
34177;BME280;20450;49.074;9.158;2023-03-15T09:32:27;99972.44;;;10.87;49.49
34177;BME280;20450;49.074;9.158;2023-03-15T09:34:54;99972.94;;;11.48;48.44
34177;BME280;20450;49.074;9.158;2023-03-15T09:37:22;99965.38;;;10.47;49.21
34177;BME280;20450;49.074;9.158;2023-03-15T09:39:49;99973.69;;;10.65;50.73
34177;BME280;20450;49.074;9.158;2023-03-15T09:42:21;99969.72;;;10.48;49.90
34177;BME280;20450;49.074;9.158;2023-03-15T09:45:04;99971.19;;;9.77;49.19
34177;BME280;20450;49.074;9.158;2023-03-15T09:47:45;99975.53;;;9.31;49.67
34177;BME280;20450;49.074;9.158;2023-03-15T09:50:21;99978.88;;;9.06;48.78
34177;BME280;20450;49.074;9.158;2023-03-15T09:53:00;99983.47;;;8.84;49.44
34177;BME280;20450;49.074;9.158;2023-03-15T09:55:32;99986.06;;;8.71;48.26
34177;BME280;20450;49.074;9.158;2023-03-15T09:58:00;99983.31;;;8.65;48.18
34177;BME280;20450;49.074;9.158;2023-03-15T10:00:35;99983.56;;;8.70;48.92
34177;BME280;20450;49.074;9.158;2023-03-15T10:03:14;99982.91;;;8.68;50.35
34177;BME280;20450;49.074;9.158;2023-03-15T10:05:48;99986.38;;;8.62;49.49
34177;BME280;20450;49.074;9.158;2023-03-15T10:08:23;99981.53;;;8.51;50.74
34177;BME280;20450;49.074;9.158;2023-03-15T10:10:54;99980.50;;;8.52;49.61
34177;BME280;20450;49.074;9.158;2023-03-15T10:13:41;99975.63;;;8.20;49.67
34177;BME280;20450;49.074;9.158;2023-03-15T10:16:33;99980.91;;;8.28;51.49
34177;BME280;20450;49.074;9.158;2023-03-15T10:19:13;99972.94;;;8.20;50.34
34177;BME280;20450;49.074;9.158;2023-03-15T10:21:51;99973.22;;;8.46;50.45
34177;BME280;20450;49.074;9.158;2023-03-15T10:24:30;99974.59;;;8.84;50.05
34177;BME280;20450;49.074;9.158;2023-03-15T10:27:12;99976.41;;;9.45;48.30
34177;BME280;20450;49.074;9.158;2023-03-15T10:29:45;99977.38;;;9.31;47.04
34177;BME280;20450;49.074;9.158;2023-03-15T10:32:18;99983.63;;;9.31;47.56
34177;BME280;20450;49.074;9.158;2023-03-15T10:34:55;99985.00;;;9.21;48.59
34177;BME280;20450;49.074;9.158;2023-03-15T10:37:24;99977.03;;;8.79;48.71
34177;BME280;20450;49.074;9.158;2023-03-15T10:39:56;99988.50;;;8.45;49.74
34177;BME280;20450;49.074;9.158;2023-03-15T10:42:29;99999.25;;;8.39;50.95
34177;BME280;20450;49.074;9.158;2023-03-15T10:44:58;99995.47;;;8.19;50.57
34177;BME280;20450;49.074;9.158;2023-03-15T10:47:52;100001.94;;;8.03;51.26
34177;BME280;20450;49.074;9.158;2023-03-15T10:50:29;100000.00;;;7.97;51.10
34177;BME280;20450;49.074;9.158;2023-03-15T10:52:59;100014.16;;;7.55;52.87
34177;BME280;20450;49.074;9.158;2023-03-15T10:55:40;100020.38;;;7.41;55.75
34177;BME280;20450;49.074;9.158;2023-03-15T10:58:19;100029.66;;;7.39;58.04
34177;BME280;20450;49.074;9.158;2023-03-15T11:00:57;100022.88;;;7.14;59.53
34177;BME280;20450;49.074;9.158;2023-03-15T11:03:25;100025.63;;;7.06;61.52
34177;BME280;20450;49.074;9.158;2023-03-15T11:05:54;100027.13;;;6.71;64.21
34177;BME280;20450;49.074;9.158;2023-03-15T11:08:26;100035.84;;;6.51;67.02
34177;BME280;20450;49.074;9.158;2023-03-15T11:11:03;100039.00;;;6.32;67.68
34177;BME280;20450;49.074;9.158;2023-03-15T11:13:34;100044.84;;;6.13;69.83
34177;BME280;20450;49.074;9.158;2023-03-15T11:16:04;100049.47;;;5.88;69.22
34177;BME280;20450;49.074;9.158;2023-03-15T11:18:36;100044.63;;;5.83;69.90
34177;BME280;20450;49.074;9.158;2023-03-15T11:21:13;100046.84;;;5.72;72.20
34177;BME280;20450;49.074;9.158;2023-03-15T11:23:43;100040.16;;;5.29;75.34
34177;BME280;20450;49.074;9.158;2023-03-15T11:26:17;100047.16;;;5.22;76.17
34177;BME280;20450;49.074;9.158;2023-03-15T11:29:03;100041.97;;;5.21;76.72
34177;BME280;20450;49.074;9.158;2023-03-15T11:31:34;100041.16;;;5.20;77.04
34177;BME280;20450;49.074;9.158;2023-03-15T11:34:05;100042.31;;;5.18;77.54
34177;BME280;20450;49.074;9.158;2023-03-15T11:36:38;100041.31;;;5.27;77.21
34177;BME280;20450;49.074;9.158;2023-03-15T11:39:12;100040.16;;;5.29;76.38
34177;BME280;20450;49.074;9.158;2023-03-15T11:41:50;100040.63;;;5.33;76.72
34177;BME280;20450;49.074;9.158;2023-03-15T11:44:26;100045.34;;;5.31;76.56
34177;BME280;20450;49.074;9.158;2023-03-15T11:47:03;100042.50;;;5.24;77.50
34177;BME280;20450;49.074;9.158;2023-03-15T11:49:43;100039.97;;;5.23;77.63
34177;BME280;20450;49.074;9.158;2023-03-15T11:52:15;100052.72;;;5.05;78.40
34177;BME280;20450;49.074;9.158;2023-03-15T11:54:43;100049.41;;;4.95;78.24
34177;BME280;20450;49.074;9.158;2023-03-15T11:57:39;100060.13;;;4.87;79.10
34177;BME280;20450;49.074;9.158;2023-03-15T12:03:37;100056.63;;;4.86;80.11
34177;BME280;20450;49.074;9.158;2023-03-15T12:09:37;100047.41;;;4.81;80.58
34177;BME280;20450;49.074;9.158;2023-03-15T12:12:35;100049.09;;;4.82;80.62
34177;BME280;20450;49.074;9.158;2023-03-15T12:15:40;100058.44;;;4.78;81.27
34177;BME280;20450;49.074;9.158;2023-03-15T12:18:13;100058.44;;;4.62;81.46
34177;BME280;20450;49.074;9.158;2023-03-15T12:20:55;100049.94;;;4.58;81.22
34177;BME280;20450;49.074;9.158;2023-03-15T12:23:42;100049.94;;;4.66;81.23
34177;BME280;20450;49.074;9.158;2023-03-15T12:26:23;100048.91;;;4.91;81.46
34177;BME280;20450;49.074;9.158;2023-03-15T12:29:04;100042.03;;;5.13;80.19
34177;BME280;20450;49.074;9.158;2023-03-15T12:31:51;100043.34;;;5.17;78.59
34177;BME280;20450;49.074;9.158;2023-03-15T12:34:28;100043.28;;;5.33;79.33
34177;BME280;20450;49.074;9.158;2023-03-15T12:37:05;100045.94;;;5.49;79.08
34177;BME280;20450;49.074;9.158;2023-03-15T12:39:41;100045.94;;;5.49;79.15
34177;BME280;20450;49.074;9.158;2023-03-15T12:42:12;100046.91;;;5.56;78.90
34177;BME280;20450;49.074;9.158;2023-03-15T12:48:23;100034.63;;;6.08;77.15
34177;BME280;20450;49.074;9.158;2023-03-15T12:51:11;100034.66;;;6.31;76.77
34177;BME280;20450;49.074;9.158;2023-03-15T12:54:12;100028.56;;;6.59;75.78
34177;BME280;20450;49.074;9.158;2023-03-15T12:56:46;100027.25;;;6.92;74.74
34177;BME280;20450;49.074;9.158;2023-03-15T12:59:22;100027.94;;;7.23;75.54
34177;BME280;20450;49.074;9.158;2023-03-15T13:02:23;100029.81;;;7.52;72.90
34177;BME280;20450;49.074;9.158;2023-03-15T13:05:15;100026.19;;;7.74;71.95
34177;BME280;20450;49.074;9.158;2023-03-15T13:07:52;100023.13;;;7.77;70.43
34177;BME280;20450;49.074;9.158;2023-03-15T13:10:39;100019.34;;;8.07;71.07
34177;BME280;20450;49.074;9.158;2023-03-15T13:13:47;100013.88;;;8.00;70.14
34177;BME280;20450;49.074;9.158;2023-03-15T13:16:30;100005.03;;;7.85;70.24
34177;BME280;20450;49.074;9.158;2023-03-15T13:19:14;100008.97;;;8.04;70.15
34177;BME280;20450;49.074;9.158;2023-03-15T13:21:58;100012.63;;;8.18;70.00
34177;BME280;20450;49.074;9.158;2023-03-15T13:24:43;100009.72;;;8.34;69.47
34177;BME280;20450;49.074;9.158;2023-03-15T13:27:29;99999.66;;;8.42;68.80
34177;BME280;20450;49.074;9.158;2023-03-15T13:30:29;100001.94;;;8.39;67.20
34177;BME280;20450;49.074;9.158;2023-03-15T13:33:12;99996.22;;;8.27;67.39
34177;BME280;20450;49.074;9.158;2023-03-15T13:35:47;99996.03;;;8.29;67.68
34177;BME280;20450;49.074;9.158;2023-03-15T13:38:26;100007.75;;;8.06;67.91
34177;BME280;20450;49.074;9.158;2023-03-15T13:40:58;100006.94;;;8.06;70.35
34177;BME280;20450;49.074;9.158;2023-03-15T13:43:30;100011.56;;;7.76;70.48
34177;BME280;20450;49.074;9.158;2023-03-15T13:45:58;100009.59;;;7.56;71.62
34177;BME280;20450;49.074;9.158;2023-03-15T13:48:27;100005.63;;;7.52;72.13
34177;BME280;20450;49.074;9.158;2023-03-15T13:51:02;100014.06;;;7.20;72.84
34177;BME280;20450;49.074;9.158;2023-03-15T13:53:32;100006.75;;;6.99;73.45